10TH ANNUAL FOREST PARK CROSS COUNTRY FESTIVAL
PRESENTED BY SAUCONY
Forest Park - St. Louis, MO September 12, 2015

------------------------------------------
EVENT #7 - VARSITY GIRLS 5K WHITE DIVISION
------------------------------------------

RECORD: 16:47.2 by Taylor Werner, Ste. Genevieve in 2013

Place TmPl Time Pace Rank 1m Split Rank 2m Split No. Name Year Tname
1 1 20:46.4 6:42 3 6:30 1 13:10 1633 Alexis Kayser SO Liberty (wentzville)
2 2 21:02.8 6:47 4 6:31 2 13:24 2464 Madalyn Graham SO Parkway North
3 3 21:20.0 6:52 5 6:31 3 13:27 2463 Morgan Faust SR Parkway North
4 4 21:34.0 6:57 6 6:31 6 13:34 2472 Lauren Steffen SO Parkway North
5 5 21:38.5 6:58 1 6:23 5 13:33 4621 Madeline Stewart FR St. Dominic
6 6 21:39.0 6:59 10 6:42 8 13:48 1627 Madelyn Brown JR Liberty (wentzville)
7 21:43.3 7:00 2 6:27 4 13:29 1060 Sarozjani Hunter JR Governor French Academy
8 7 21:43.3 7:00 11 6:42 9 13:49 1637 Eleanor McCrary SO Liberty (wentzville)
9 8 21:48.0 7:01 8 6:38 7 13:48 1979 Nicole Martin FR Mexico
10 21:57.9 7:05 7 6:32 10 13:49 3434 Kalleigh Linthicum JR Timberland
11 9 22:06.8 7:08 20 6:57 11 14:09 1735 Meredith Leigh SO Lutheran (st. Charles)
12 10 22:12.3 7:09 21 6:57 15 14:18 1740 Kate Schlie SO Lutheran (st. Charles)
13 11 22:15.9 7:10 19 6:57 16 14:19 2352 Faith Gerling SO Pacific
14 12 22:23.1 7:13 12 6:43 12 14:13 1631 Allana Guffey FR Liberty (wentzville)
15 13 22:26.9 7:14 23 6:58 17 14:24 1732 Julia Fruend FR Lutheran (st. Charles)
16 14 22:29.3 7:15 38 7:06 22 14:34 1638 Mackenzie Murphy JR Liberty (wentzville)
17 15 22:35.4 7:17 31 6:59 25 14:35 2356 Paige Meshach JR Pacific
18 16 22:38.6 7:18 22 6:58 18 14:29 2357 Riley O'Neill SO Pacific
19 17 22:41.1 7:19 39 7:07 23 14:34 1641 Markie Schmidt FR Liberty (wentzville)
20 18 22:41.4 7:19 40 7:07 24 14:34 1632 Phoebe Helton FR Liberty (wentzville)
21 22:43.5 7:19 9 6:40 13 14:16 2724 Julia Vogt JR Presentation Academy (ky)
22 19 22:50.6 7:22 15 6:52 14 14:17 3143 Rachel Jackson SR St. Charles West
23 22:54.8 7:23 33 7:00 19 14:31 2855 Lane Borsa SR Providence Classical Christian
24 20 22:56.9 7:24 29 6:59 21 14:34 2360 Breanna Van Meter SO Pacific
25 21 23:01.5 7:25 30 6:59 26 14:35 2354 Olivia Lindemann SO Pacific
26 22 23:02.5 7:25 32 6:59 27 14:35 4605 Hannah Faust SR St. Dominic
27 23 23:07.3 7:27 24 6:58 29 14:41 3141 Grace Honey SO St. Charles West
28 24 23:13.1 7:29 14 6:50 33 14:51 480 Kailey Heusohn JR Dupo (il)
29 25 23:14.3 7:29 17 6:53 20 14:33 2062 Bailey Seaton SO North County
30 26 23:16.2 7:30 16 6:52 28 14:37 478 Caitlyn Brizzi SR Dupo (il)
31 27 23:18.4 7:31 28 6:59 32 14:51 3146 Alyssa Pavlacic FR St. Charles West
32 23:18.9 7:31 36 7:04 31 14:50 3170 Brianna Rinks JR St. Clair
33 28 23:32.3 7:35 27 6:59 38 15:00 3140 Kendra Easton SR St. Charles West
34 23:33.4 7:35 55 7:24 41 15:08 2723 Alex Voelker SR Presentation Academy (ky)
35 29 23:37.5 7:37 48 7:11 36 14:55 2359 Evie Spurgin SO Pacific
36 30 23:40.6 7:38 25 6:58 30 14:49 1978 Rachel Hightshoe SR Mexico
37 23:40.9 7:38 54 7:24 42 15:08 2715 Addison Childs JR Presentation Academy (ky)
38 31 23:49.4 7:41 35 7:01 34 14:53 2471 Lucinda Snow JR Parkway North
39 32 23:57.0 7:43 46 7:09 44 15:09 3065 Anna Nortrup SR Rosati-Kain
40 33 23:57.2 7:43 42 7:08 46 15:13 3068 Jaclynn Street SR Rosati-Kain
41 34 23:58.3 7:43 18 6:54 37 14:59 2466 Carlie Manczuk SR Parkway North
42 35 24:02.8 7:45 34 7:01 35 14:55 479 Shana Foster SR Dupo (il)
43 36 24:08.0 7:47 13 6:48 39 15:01 4612 Madeline Mueller JR St. Dominic
44 37 24:09.8 7:47 41 7:07 40 15:04 4622 Ashley Strautmann SO St. Dominic
45 38 24:10.8 7:47 45 7:08 45 15:10 335 Denise Luft JR Columbia
46 24:12.4 7:48 49 7:12 49 15:25 3165 Emily Hardin SR St. Clair
47 39 24:17.7 7:50 44 7:08 43 15:08 3064 Maria Huhman SR Rosati-Kain
48 40 24:33.7 7:55 51 7:20 53 15:33 339 Kyanne Williams FR Columbia
49 41 24:44.0 7:58 37 7:06 48 15:22 89 Amina Krdzic JR Bayless
50 42 24:48.9 8:00 26 6:58 47 15:16 1980 Kellee Smith SO Mexico
51 43 24:51.6 8:01 67 7:34 55 15:42 2275 Shelby Beasley SR Orchard Farm
52 24:55.9 8:02 56 7:25 50 15:25 2 Tonyelle Temple SR Affton
53 24:58.1 8:03 59 7:28 57 15:51 3167 Alexis Love JR St. Clair
54 24:59.0 8:03 61 7:30 54 15:36 2711 Marlo Allsopp SO Presentation Academy (ky)
55 44 25:00.8 8:04 47 7:10 51 15:28 4609 Abigail Kahr SO St. Dominic
56 45 25:09.3 8:06 71 7:38 59 15:55 1974 Alexis Atkinson JR Mexico
57 25:09.6 8:06 50 7:14 52 15:33 2859 Alyssa Haverdink SO Providence Classical Christian
58 46 25:12.3 8:07 77 7:50 64 16:06 1745 Lila Witte SO Lutheran (st. Charles)
59 47 25:16.4 8:09 63 16:06 2280 Courtney Roberts JR Orchard Farm
60 48 25:25.8 8:12 69 7:37 61 16:03 2061 Martina Morgan SR North County
61 25:28.0 8:12 43 7:08 56 15:48 2871 Omily Rustemeyer SO Ritenour
62 49 25:28.8 8:13 65 7:34 60 15:55 3066 Rachel Porter JR Rosati-Kain
63 25:38.2 8:16 63 7:31 58 15:55 2857 Rebecca Doctor SO Providence Classical Christian
64 50 25:42.5 8:17 57 7:26 66 16:12 2063 Celena Weber FR North County
65 51 25:43.4 8:17 53 7:24 62 16:03 2113 Madison Hunsaker SO Notre Dame (st. Louis)
66 52 25:46.0 8:18 72 7:38 69 16:22 91 Lejla Sinanovic SO Bayless
67 53 25:50.4 8:20 73 7:45 78 16:40 1976 Miah Case SR Mexico
68 54 26:00.2 8:23 62 7:30 77 16:36 2064 Kimberly Willhelm JR North County
69 55 26:01.1 8:23 66 7:34 68 16:18 484 Taylor Vaughan JR Dupo (il)
70 26:01.8 8:23 68 7:36 74 16:31 3164 Rachel Griffith JR St. Clair
71 56 26:02.3 8:23 75 7:48 75 16:33 483 Micheala Rouggly SO Dupo (il)
72 57 26:03.2 8:24 74 7:46 73 16:28 2278 Emily Muensterman FR Orchard Farm
73 58 26:08.5 8:25 60 7:30 65 16:12 2059 Elizabeth Gadberry SO North County
74 26:16.0 8:28 52 7:21 67 16:14 3551 Cameron Wells JR Valley Park
75 59 26:20.9 8:29 58 7:26 72 16:26 3067 Kristen Sextro JR Rosati-Kain
76 60 26:27.5 8:31 64 7:31 76 16:34 2111 Samantha Amezcua JR Notre Dame (st. Louis)
77 61 26:29.1 8:32 92 8:08 82 16:49 1727 Jennifer Ake FR Lutheran (st. Charles)
78 62 26:30.5 8:32 82 7:59 84 16:53 482 Mercedes Ramires FR Dupo (il)
79 63 26:30.7 8:32 86 8:01 83 16:49 1736 Abigail Lohmeyer SR Lutheran (st. Charles)
80 64 26:34.3 8:34 80 7:56 80 16:41 336 Ali Mabus SR Columbia
81 65 26:37.4 8:35 78 7:51 71 16:24 1734 Emily Hall JR Lutheran (st. Charles)
82 26:39.7 8:35 79 7:54 85 16:55 1086 Jenna Deweese SR Hancock
83 26:45.0 8:37 70 7:38 70 16:24 2856 Libbi Borsa SO Providence Classical Christian
84 66 26:49.3 8:38 91 8:06 87 17:06 2281 Alexis Stotler SO Orchard Farm
85 67 26:55.4 8:40 87 8:03 86 16:59 3139 Bailey Clodfelter SO St. Charles West
86 27:02.0 8:43 76 7:48 79 16:41 3 Madison Walker SO Affton
87 68 27:19.0 8:48 89 8:04 89 17:18 333 Kaylee Fisk SO Columbia
88 69 27:23.2 8:49 90 8:06 88 17:18 2279 Hannah Paradis FR Orchard Farm
89 27:27.1 8:51 96 8:30 93 17:45 1738 Taylor Michel SO Lutheran (st. Charles)
90 70 27:41.4 8:55 99 8:34 94 17:52 1981 Shannon Stice SO Mexico
91 71 27:51.6 8:59 85 8:01 90 17:21 3145 Tayler Mitchell SR St. Charles West
92 72 27:56.7 9:00 81 7:56 81 16:42 337 Jessica Rachell SO Columbia
93 73 28:03.6 9:02 84 8:01 92 17:36 90 Edina Pilipovic JR Bayless
94 74 28:06.0 9:03 88 8:04 91 17:32 338 Kelsey Weatherford JR Columbia
95 75 28:25.5 9:09 93 8:12 97 17:59 2116 Tammy Phan JR Notre Dame (st. Louis)
96 76 28:47.8 9:17 83 8:00 96 17:58 2112 Maria Frausto SO Notre Dame (st. Louis)
97 77 28:51.7 9:18 103 8:39 95 17:55 1973 Carly Abbott SR Mexico
98 29:09.3 9:24 100 8:34 99 18:21 1085 McKenzie Demars JR Hancock
99 78 29:12.5 9:25 97 8:32 98 18:12 486 Kaylee Zishka SO Dupo (il)
100 79 29:39.5 9:33 104 8:40 100 18:25 1348 Kristy Baynes SR John F. Kennedy
101 80 29:57.7 9:39 98 8:33 108 19:28 92 Anesa Sisic SO Bayless
102 81 29:57.9 9:39 106 8:41 101 18:47 2276 Brooklinn Liesmann FR Orchard Farm
103 82 30:08.3 9:43 107 8:51 104 19:02 1353 Karissa Kruse SO John F. Kennedy
104 30:17.3 9:45 94 8:15 102 18:53 1731 Savanna Dennison SO Lutheran (st. Charles)
105 83 30:20.8 9:47 101 8:37 109 19:49 2277 Kaelyn Mraz FR Orchard Farm
106 84 30:30.8 9:50 95 8:30 103 18:57 3142 Kendall Isom FR St. Charles West
107 85 30:38.4 9:52 108 8:52 105 19:03 1349 Lauren Curtis SR John F. Kennedy
108 86 30:47.0 9:55 109 8:56 106 19:11 1358 Abby Weidlick JR John F. Kennedy
109 30:54.1 9:57 105 8:40 107 19:19 4 Tara Weiskopf-Kuehn SO Affton
110 87 30:59.3 9:59 102 8:38 111 19:52 2115 Maggie Meystrick FR Notre Dame (st. Louis)
111 31:30.9 10:09 110 9:04 110 19:51 1089 Morgan Mirgaux SR Hancock
112 88 32:24.7 10:26 112 9:27 114 20:43 2117 Emily Roth FR Notre Dame (st. Louis)
113 89 32:26.9 10:27 111 9:05 112 20:21 1350 Kelly Foerstel SR John F. Kennedy
114 90 32:46.8 10:34 115 9:51 113 20:38 88 Delisa Alibasic FR Bayless
115 91 35:59.4 11:36 114 9:36 117 23:22 2114 Carla Mendoza SO Notre Dame (st. Louis)
116 36:02.2 11:36 113 9:27 116 23:11 1088 Samantha Mallory FR Hancock
117 92 37:45.0 12:10 116 10:25 115 23:00 1355 Kaitlyn Ohley SR John F. Kennedy